sensor_id;sensor_type;location;lat;lon;timestamp;pressure;altitude;pressure_sealevel;temperature;humidity
15750;BME280;7976;52.526;13.326;2023-02-02T00:00:12;100363.47;;;5.02;92.32
15750;BME280;7976;52.526;13.326;2023-02-02T00:02:55;100360.84;;;5.03;92.17
15750;BME280;7976;52.526;13.326;2023-02-02T00:05:27;100349.56;;;5.04;92.43
15750;BME280;7976;52.526;13.326;2023-02-02T00:08:03;100345.16;;;5.08;92.05
15750;BME280;7976;52.526;13.326;2023-02-02T00:10:56;100358.03;;;5.12;91.77
15750;BME280;7976;52.526;13.326;2023-02-02T00:13:23;100350.25;;;5.14;91.60
15750;BME280;7976;52.526;13.326;2023-02-02T00:15:51;100355.41;;;5.16;91.23
15750;BME280;7976;52.526;13.326;2023-02-02T00:18:18;100351.00;;;5.18;91.18
15750;BME280;7976;52.526;13.326;2023-02-02T00:20:47;100344.88;;;5.22;91.05
15750;BME280;7976;52.526;13.326;2023-02-02T00:23:15;100352.59;;;5.25;90.81
15750;BME280;7976;52.526;13.326;2023-02-02T00:25:44;100341.31;;;5.27;90.44
15750;BME280;7976;52.526;13.326;2023-02-02T00:28:33;100337.78;;;5.30;90.53
15750;BME280;7976;52.526;13.326;2023-02-02T00:31:03;100332.53;;;5.31;90.40
15750;BME280;7976;52.526;13.326;2023-02-02T00:33:30;100342.88;;;5.33;90.23
15750;BME280;7976;52.526;13.326;2023-02-02T00:36:32;100335.09;;;5.34;90.01
15750;BME280;7976;52.526;13.326;2023-02-02T00:39:03;100322.13;;;5.33;89.87
15750;BME280;7976;52.526;13.326;2023-02-02T00:41:33;100331.66;;;5.34;89.66
15750;BME280;7976;52.526;13.326;2023-02-02T00:44:11;100327.28;;;5.36;89.54
15750;BME280;7976;52.526;13.326;2023-02-02T00:46:57;100322.09;;;5.36;89.32
15750;BME280;7976;52.526;13.326;2023-02-02T00:49:25;100335.84;;;5.38;89.62
15750;BME280;7976;52.526;13.326;2023-02-02T00:51:54;100339.34;;;5.37;89.82
15750;BME280;7976;52.526;13.326;2023-02-02T00:54:37;100339.34;;;5.37;89.37
15750;BME280;7976;52.526;13.326;2023-02-02T00:57:06;100334.19;;;5.35;89.59
15750;BME280;7976;52.526;13.326;2023-02-02T00:59:36;100345.44;;;5.36;89.78
15750;BME280;7976;52.526;13.326;2023-02-02T01:02:08;100349.72;;;5.37;90.20
15750;BME280;7976;52.526;13.326;2023-02-02T01:04:37;100324.59;;;5.39;89.96
15750;BME280;7976;52.526;13.326;2023-02-02T01:07:11;100352.31;;;5.37;90.43
15750;BME280;7976;52.526;13.326;2023-02-02T01:09:42;100348.06;;;5.33;90.47
15750;BME280;7976;52.526;13.326;2023-02-02T01:12:25;100344.72;;;5.28;90.86
15750;BME280;7976;52.526;13.326;2023-02-02T01:14:56;100360.47;;;5.20;91.17
15750;BME280;7976;52.526;13.326;2023-02-02T01:20:38;100342.69;;;5.03;92.30
15750;BME280;7976;52.526;13.326;2023-02-02T01:23:11;100362.59;;;5.01;92.82
15750;BME280;7976;52.526;13.326;2023-02-02T01:25:53;100364.41;;;4.98;93.40
15750;BME280;7976;52.526;13.326;2023-02-02T01:28:20;100354.94;;;4.97;93.78
15750;BME280;7976;52.526;13.326;2023-02-02T01:30:47;100367.03;;;4.96;94.32
15750;BME280;7976;52.526;13.326;2023-02-02T01:33:14;100367.94;;;4.95;94.40
15750;BME280;7976;52.526;13.326;2023-02-02T01:35:45;100369.69;;;4.93;94.76
15750;BME280;7976;52.526;13.326;2023-02-02T01:38:14;100364.53;;;4.92;95.00
15750;BME280;7976;52.526;13.326;2023-02-02T01:40:46;100345.53;;;4.91;95.21
15750;BME280;7976;52.526;13.326;2023-02-02T01:43:22;100355.97;;;4.88;95.48
15750;BME280;7976;52.526;13.326;2023-02-02T01:45:50;100357.66;;;4.89;95.69
15750;BME280;7976;52.526;13.326;2023-02-02T01:48:19;100349.88;;;4.89;96.24
15750;BME280;7976;52.526;13.326;2023-02-02T01:50:49;100360.25;;;4.89;96.03
15750;BME280;7976;52.526;13.326;2023-02-02T01:53:20;100365.38;;;4.92;96.40
15750;BME280;7976;52.526;13.326;2023-02-02T01:55:48;100372.25;;;4.95;96.55
15750;BME280;7976;52.526;13.326;2023-02-02T01:58:24;100367.09;;;4.93;96.55
15750;BME280;7976;52.526;13.326;2023-02-02T02:00:52;100382.69;;;4.92;96.60
15750;BME280;7976;52.526;13.326;2023-02-02T02:03:23;100373.22;;;4.89;96.98
15750;BME280;7976;52.526;13.326;2023-02-02T02:05:55;100374.94;;;4.90;96.92
15750;BME280;7976;52.526;13.326;2023-02-02T02:08:29;100381.84;;;4.90;97.25
15750;BME280;7976;52.526;13.326;2023-02-02T02:10:57;100378.31;;;4.92;97.40
15750;BME280;7976;52.526;13.326;2023-02-02T02:13:26;100386.06;;;4.95;97.67
15750;BME280;7976;52.526;13.326;2023-02-02T02:16:33;100378.22;;;4.98;97.75
15750;BME280;7976;52.526;13.326;2023-02-02T02:19:16;100383.31;;;5.03;97.80
15750;BME280;7976;52.526;13.326;2023-02-02T02:21:56;100382.41;;;5.05;97.97
15750;BME280;7976;52.526;13.326;2023-02-02T02:25:27;100377.13;;;5.10;98.00
15750;BME280;7976;52.526;13.326;2023-02-02T02:32:04;100388.22;;;5.17;97.73
15750;BME280;7976;52.526;13.326;2023-02-02T02:34:50;100386.44;;;5.19;97.74
15750;BME280;7976;52.526;13.326;2023-02-02T02:37:33;100390.69;;;5.21;97.57
15750;BME280;7976;52.526;13.326;2023-02-02T02:40:12;100394.06;;;5.25;97.78
15750;BME280;7976;52.526;13.326;2023-02-02T02:42:46;100386.28;;;5.25;97.55
15750;BME280;7976;52.526;13.326;2023-02-02T02:45:16;100410.47;;;5.27;97.68
15750;BME280;7976;52.526;13.326;2023-02-02T02:47:47;100405.22;;;5.30;97.48
15750;BME280;7976;52.526;13.326;2023-02-02T02:50:15;100393.94;;;5.32;97.51
15750;BME280;7976;52.526;13.326;2023-02-02T02:52:45;100393.88;;;5.34;97.35
15750;BME280;7976;52.526;13.326;2023-02-02T02:55:14;100416.34;;;5.35;97.50
15750;BME280;7976;52.526;13.326;2023-02-02T02:58:08;100415.47;;;5.36;97.16
15750;BME280;7976;52.526;13.326;2023-02-02T03:00:52;100406.78;;;5.37;97.03
15750;BME280;7976;52.526;13.326;2023-02-02T03:03:46;100421.44;;;5.39;97.03
15750;BME280;7976;52.526;13.326;2023-02-02T03:06:22;100407.56;;;5.40;96.60
15750;BME280;7976;52.526;13.326;2023-02-02T03:08:59;100433.47;;;5.42;96.64
15750;BME280;7976;52.526;13.326;2023-02-02T03:11:28;100439.50;;;5.44;96.37
15750;BME280;7976;52.526;13.326;2023-02-02T03:13:56;100441.19;;;5.45;96.64
15750;BME280;7976;52.526;13.326;2023-02-02T03:16:23;100442.03;;;5.47;96.62
15750;BME280;7976;52.526;13.326;2023-02-02T03:18:51;100455.84;;;5.47;96.30
15750;BME280;7976;52.526;13.326;2023-02-02T03:21:20;100457.56;;;5.48;96.12
15750;BME280;7976;52.526;13.326;2023-02-02T03:23:47;100454.09;;;5.48;95.99
15750;BME280;7976;52.526;13.326;2023-02-02T03:26:14;100467.06;;;5.48;95.97
15750;BME280;7976;52.526;13.326;2023-02-02T03:28:41;100468.88;;;5.46;95.70
15750;BME280;7976;52.526;13.326;2023-02-02T03:31:08;100480.03;;;5.48;95.26
15750;BME280;7976;52.526;13.326;2023-02-02T03:33:36;100479.22;;;5.47;95.58
15750;BME280;7976;52.526;13.326;2023-02-02T03:36:06;100475.75;;;5.47;95.39
15750;BME280;7976;52.526;13.326;2023-02-02T03:38:33;100488.69;;;5.48;95.23
15750;BME280;7976;52.526;13.326;2023-02-02T03:41:00;100502.59;;;5.46;95.17
15750;BME280;7976;52.526;13.326;2023-02-02T03:43:28;100496.53;;;5.45;95.14
15750;BME280;7976;52.526;13.326;2023-02-02T03:45:56;100503.44;;;5.45;94.92
15750;BME280;7976;52.526;13.326;2023-02-02T03:48:23;100510.41;;;5.43;94.69
15750;BME280;7976;52.526;13.326;2023-02-02T03:50:50;100505.22;;;5.43;94.87
15750;BME280;7976;52.526;13.326;2023-02-02T03:53:18;100514.69;;;5.45;94.82
15750;BME280;7976;52.526;13.326;2023-02-02T03:55:45;100514.69;;;5.45;94.99
15750;BME280;7976;52.526;13.326;2023-02-02T03:58:12;100522.44;;;5.47;94.94
15750;BME280;7976;52.526;13.326;2023-02-02T04:00:39;100514.63;;;5.48;94.59
15750;BME280;7976;52.526;13.326;2023-02-02T04:03:06;100522.44;;;5.47;94.55
15750;BME280;7976;52.526;13.326;2023-02-02T04:05:33;100525.91;;;5.47;94.70
15750;BME280;7976;52.526;13.326;2023-02-02T04:08:00;100539.75;;;5.46;94.68
15750;BME280;7976;52.526;13.326;2023-02-02T04:10:28;100551.88;;;5.46;94.49
15750;BME280;7976;52.526;13.326;2023-02-02T04:12:56;100551.88;;;5.46;94.32
15750;BME280;7976;52.526;13.326;2023-02-02T04:15:23;100556.22;;;5.45;94.37
15750;BME280;7976;52.526;13.326;2023-02-02T04:17:49;100557.09;;;5.44;94.31
15750;BME280;7976;52.526;13.326;2023-02-02T04:20:16;100552.72;;;5.46;94.34
15750;BME280;7976;52.526;13.326;2023-02-02T04:22:43;100571.78;;;5.45;94.08
15750;BME280;7976;52.526;13.326;2023-02-02T04:25:10;100582.13;;;5.47;94.18
15750;BME280;7976;52.526;13.326;2023-02-02T04:27:38;100584.72;;;5.47;94.12
15750;BME280;7976;52.526;13.326;2023-02-02T04:30:07;100582.19;;;5.44;93.66
15750;BME280;7976;52.526;13.326;2023-02-02T04:32:34;100594.25;;;5.45;93.56
15750;BME280;7976;52.526;13.326;2023-02-02T04:35:01;100594.25;;;5.45;93.64
15750;BME280;7976;52.526;13.326;2023-02-02T04:37:30;100593.41;;;5.46;93.58
15750;BME280;7976;52.526;13.326;2023-02-02T04:39:57;100602.88;;;5.47;93.59
15750;BME280;7976;52.526;13.326;2023-02-02T04:42:24;100603.72;;;5.49;93.65
15750;BME280;7976;52.526;13.326;2023-02-02T04:44:52;100609.75;;;5.49;93.49
15750;BME280;7976;52.526;13.326;2023-02-02T04:47:19;100611.41;;;5.53;93.52
15750;BME280;7976;52.526;13.326;2023-02-02T04:49:46;100620.03;;;5.54;93.22
15750;BME280;7976;52.526;13.326;2023-02-02T04:52:13;100620.00;;;5.55;92.98
15750;BME280;7976;52.526;13.326;2023-02-02T04:54:40;100616.53;;;5.56;92.85
15750;BME280;7976;52.526;13.326;2023-02-02T04:57:06;100632.94;;;5.57;92.66
15750;BME280;7976;52.526;13.326;2023-02-02T04:59:33;100624.28;;;5.58;92.86
15750;BME280;7976;52.526;13.326;2023-02-02T05:02:02;100640.69;;;5.58;92.64
15750;BME280;7976;52.526;13.326;2023-02-02T05:04:29;100635.50;;;5.58;92.65
15750;BME280;7976;52.526;13.326;2023-02-02T05:06:56;100632.94;;;5.57;92.29
15750;BME280;7976;52.526;13.326;2023-02-02T05:09:24;100640.78;;;5.55;92.65
15750;BME280;7976;52.526;13.326;2023-02-02T05:11:51;100650.28;;;5.55;92.51
15750;BME280;7976;52.526;13.326;2023-02-02T05:14:18;100656.38;;;5.54;92.74
15750;BME280;7976;52.526;13.326;2023-02-02T05:16:45;100661.59;;;5.52;92.96
15750;BME280;7976;52.526;13.326;2023-02-02T05:19:13;100672.00;;;5.51;93.11
15750;BME280;7976;52.526;13.326;2023-02-02T05:21:42;100679.81;;;5.49;93.28
15750;BME280;7976;52.526;13.326;2023-02-02T05:24:10;100690.19;;;5.48;93.24
15750;BME280;7976;52.526;13.326;2023-02-02T05:26:37;100678.13;;;5.45;93.15
15750;BME280;7976;52.526;13.326;2023-02-02T05:29:04;100685.94;;;5.45;93.40
15750;BME280;7976;52.526;13.326;2023-02-02T05:31:32;100693.72;;;5.45;93.30
15750;BME280;7976;52.526;13.326;2023-02-02T05:33:59;100703.25;;;5.43;93.46
15750;BME280;7976;52.526;13.326;2023-02-02T05:36:27;100708.38;;;5.46;93.50
15750;BME280;7976;52.526;13.326;2023-02-02T05:38:54;100708.38;;;5.46;93.52
15750;BME280;7976;52.526;13.326;2023-02-02T05:41:21;100698.88;;;5.47;93.39
15750;BME280;7976;52.526;13.326;2023-02-02T05:43:47;100703.16;;;5.49;93.35
15750;BME280;7976;52.526;13.326;2023-02-02T05:46:15;100710.09;;;5.49;93.04
15750;BME280;7976;52.526;13.326;2023-02-02T05:48:41;100715.25;;;5.50;93.20
15750;BME280;7976;52.526;13.326;2023-02-02T05:51:14;100721.28;;;5.51;93.03
15750;BME280;7976;52.526;13.326;2023-02-02T05:53:43;100728.19;;;5.52;92.89
15750;BME280;7976;52.526;13.326;2023-02-02T05:56:10;100723.88;;;5.52;92.75
15750;BME280;7976;52.526;13.326;2023-02-02T05:58:37;100729.88;;;5.53;92.63
15750;BME280;7976;52.526;13.326;2023-02-02T06:01:04;100724.69;;;5.53;92.45
15750;BME280;7976;52.526;13.326;2023-02-02T06:03:31;100738.50;;;5.55;92.45
15750;BME280;7976;52.526;13.326;2023-02-02T06:05:58;100732.44;;;5.56;92.25
15750;BME280;7976;52.526;13.326;2023-02-02T06:08:25;100735.88;;;5.56;92.06
15750;BME280;7976;52.526;13.326;2023-02-02T06:10:54;100748.00;;;5.57;91.74
15750;BME280;7976;52.526;13.326;2023-02-02T06:13:21;100755.81;;;5.56;91.67
15750;BME280;7976;52.526;13.326;2023-02-02T06:15:48;100765.25;;;5.58;91.51
15750;BME280;7976;52.526;13.326;2023-02-02T06:18:15;100767.00;;;5.58;91.31
15750;BME280;7976;52.526;13.326;2023-02-02T06:20:42;100767.84;;;5.60;91.28
15750;BME280;7976;52.526;13.326;2023-02-02T06:23:08;100775.59;;;5.61;90.72
15750;BME280;7976;52.526;13.326;2023-02-02T06:25:35;100779.06;;;5.62;90.79
15750;BME280;7976;52.526;13.326;2023-02-02T06:28:03;100774.72;;;5.62;90.80
15750;BME280;7976;52.526;13.326;2023-02-02T06:30:30;100796.31;;;5.63;90.57
15750;BME280;7976;52.526;13.326;2023-02-02T06:32:58;100797.19;;;5.63;90.46
15750;BME280;7976;52.526;13.326;2023-02-02T06:35:25;100794.63;;;5.62;90.19
15750;BME280;7976;52.526;13.326;2023-02-02T06:37:52;100798.13;;;5.61;90.14
15750;BME280;7976;52.526;13.326;2023-02-02T06:40:20;100804.16;;;5.60;90.01
15750;BME280;7976;52.526;13.326;2023-02-02T06:42:46;100805.94;;;5.59;89.80
15750;BME280;7976;52.526;13.326;2023-02-02T06:45:15;100811.94;;;5.60;89.53
15750;BME280;7976;52.526;13.326;2023-02-02T06:50:11;100811.91;;;5.61;89.04
15750;BME280;7976;52.526;13.326;2023-02-02T06:52:38;100822.31;;;5.61;89.19
15750;BME280;7976;52.526;13.326;2023-02-02T06:55:06;100824.06;;;5.61;88.99
15750;BME280;7976;52.526;13.326;2023-02-02T06:57:33;100839.63;;;5.61;88.67
15750;BME280;7976;52.526;13.326;2023-02-02T07:00:00;100831.81;;;5.62;88.50
15750;BME280;7976;52.526;13.326;2023-02-02T07:02:29;100836.16;;;5.62;88.57
15750;BME280;7976;52.526;13.326;2023-02-02T07:04:55;100848.25;;;5.61;88.13
15750;BME280;7976;52.526;13.326;2023-02-02T07:07:22;100852.59;;;5.61;87.87
15750;BME280;7976;52.526;13.326;2023-02-02T07:09:49;100853.44;;;5.61;87.25
15750;BME280;7976;52.526;13.326;2023-02-02T07:12:16;100860.38;;;5.62;86.90
15750;BME280;7976;52.526;13.326;2023-02-02T07:14:43;100863.81;;;5.64;86.50
15750;BME280;7976;52.526;13.326;2023-02-02T07:17:11;100875.88;;;5.65;86.13
15750;BME280;7976;52.526;13.326;2023-02-02T07:19:39;100876.75;;;5.66;85.66
15750;BME280;7976;52.526;13.326;2023-02-02T07:22:05;100881.91;;;5.67;85.38
15750;BME280;7976;52.526;13.326;2023-02-02T07:24:32;100899.16;;;5.70;84.89
15750;BME280;7976;52.526;13.326;2023-02-02T07:26:59;100900.91;;;5.71;84.90
15750;BME280;7976;52.526;13.326;2023-02-02T07:29:26;100907.84;;;5.69;84.70
15750;BME280;7976;52.526;13.326;2023-02-02T07:31:53;100913.09;;;5.66;84.60
15750;BME280;7976;52.526;13.326;2023-02-02T07:34:20;100909.66;;;5.64;84.56
15750;BME280;7976;52.526;13.326;2023-02-02T07:36:48;100910.50;;;5.63;84.60
15750;BME280;7976;52.526;13.326;2023-02-02T07:39:15;100918.34;;;5.60;84.41
15750;BME280;7976;52.526;13.326;2023-02-02T07:41:42;100914.91;;;5.58;84.68
15750;BME280;7976;52.526;13.326;2023-02-02T07:44:21;100924.47;;;5.57;84.69
15750;BME280;7976;52.526;13.326;2023-02-02T07:46:48;100915.78;;;5.58;84.71
15750;BME280;7976;52.526;13.326;2023-02-02T07:49:17;100925.28;;;5.61;84.77
15750;BME280;7976;52.526;13.326;2023-02-02T07:51:45;100916.59;;;5.62;84.89
15750;BME280;7976;52.526;13.326;2023-02-02T07:54:17;100928.66;;;5.66;84.80
15750;BME280;7976;52.526;13.326;2023-02-02T07:56:44;100930.25;;;5.73;84.92
15750;BME280;7976;52.526;13.326;2023-02-02T07:59:11;100929.28;;;5.81;85.32
15750;BME280;7976;52.526;13.326;2023-02-02T08:01:38;100937.06;;;5.81;85.06
15750;BME280;7976;52.526;13.326;2023-02-02T08:04:05;100931.06;;;5.79;85.00
15750;BME280;7976;52.526;13.326;2023-02-02T08:06:35;100943.22;;;5.76;84.98
15750;BME280;7976;52.526;13.326;2023-02-02T08:09:04;100945.81;;;5.76;85.36
15750;BME280;7976;52.526;13.326;2023-02-02T08:11:35;100951.00;;;5.76;85.71
15750;BME280;7976;52.526;13.326;2023-02-02T08:14:03;100950.16;;;5.74;85.91
15750;BME280;7976;52.526;13.326;2023-02-02T08:16:32;100957.97;;;5.74;86.16
15750;BME280;7976;52.526;13.326;2023-02-02T08:19:00;100958.81;;;5.73;86.65
15750;BME280;7976;52.526;13.326;2023-02-02T08:21:27;100958.81;;;5.73;86.62
15750;BME280;7976;52.526;13.326;2023-02-02T08:23:54;100961.44;;;5.74;87.01
15750;BME280;7976;52.526;13.326;2023-02-02T08:26:24;100961.41;;;5.76;87.17
15750;BME280;7976;52.526;13.326;2023-02-02T08:28:55;100974.31;;;5.79;87.54
15750;BME280;7976;52.526;13.326;2023-02-02T08:31:26;100974.25;;;5.86;87.46
15750;BME280;7976;52.526;13.326;2023-02-02T08:34:09;100978.50;;;5.92;87.26
15750;BME280;7976;52.526;13.326;2023-02-02T08:37:11;100974.09;;;5.97;87.15
15750;BME280;7976;52.526;13.326;2023-02-02T08:39:38;100975.91;;;5.92;86.84
15750;BME280;7976;52.526;13.326;2023-02-02T08:42:06;100981.94;;;5.94;87.20
15750;BME280;7976;52.526;13.326;2023-02-02T08:44:40;100982.78;;;5.93;86.94
15750;BME280;7976;52.526;13.326;2023-02-02T08:47:28;100985.38;;;5.96;86.89
15750;BME280;7976;52.526;13.326;2023-02-02T08:49:55;100995.69;;;6.00;86.95
15750;BME280;7976;52.526;13.326;2023-02-02T08:52:22;100990.41;;;6.05;86.72
15750;BME280;7976;52.526;13.326;2023-02-02T08:54:49;100990.34;;;6.08;86.76
15750;BME280;7976;52.526;13.326;2023-02-02T08:59:43;100998.91;;;6.16;86.23
15750;BME280;7976;52.526;13.326;2023-02-02T09:02:10;101000.53;;;6.21;86.19
15750;BME280;7976;52.526;13.326;2023-02-02T09:04:38;101002.19;;;6.27;85.76
15750;BME280;7976;52.526;13.326;2023-02-02T09:09:58;101009.06;;;6.31;85.15
15750;BME280;7976;52.526;13.326;2023-02-02T09:12:25;101001.25;;;6.32;84.98
15750;BME280;7976;52.526;13.326;2023-02-02T09:14:53;101018.47;;;6.38;85.00
15750;BME280;7976;52.526;13.326;2023-02-02T09:17:20;101017.50;;;6.45;84.62
15750;BME280;7976;52.526;13.326;2023-02-02T09:19:48;101018.28;;;6.50;84.63
15750;BME280;7976;52.526;13.326;2023-02-02T09:22:15;101027.75;;;6.54;84.53
15750;BME280;7976;52.526;13.326;2023-02-02T09:24:42;101031.19;;;6.56;84.62
15750;BME280;7976;52.526;13.326;2023-02-02T09:27:09;101034.59;;;6.60;84.13
15750;BME280;7976;52.526;13.326;2023-02-02T09:29:36;101039.78;;;6.61;83.93
15750;BME280;7976;52.526;13.326;2023-02-02T09:32:04;101044.94;;;6.63;83.02
15750;BME280;7976;52.526;13.326;2023-02-02T09:34:33;101053.50;;;6.69;82.84
15750;BME280;7976;52.526;13.326;2023-02-02T09:37:00;101049.13;;;6.73;82.51
15750;BME280;7976;52.526;13.326;2023-02-02T09:39:28;101038.75;;;6.71;82.39
15750;BME280;7976;52.526;13.326;2023-02-02T09:45:17;101056.78;;;6.80;82.22
15750;BME280;7976;52.526;13.326;2023-02-02T09:47:55;101061.94;;;6.82;82.02
15750;BME280;7976;52.526;13.326;2023-02-02T09:50:41;101067.91;;;6.88;81.70
15750;BME280;7976;52.526;13.326;2023-02-02T09:53:22;101073.09;;;6.88;81.36
15750;BME280;7976;52.526;13.326;2023-02-02T09:55:55;101076.56;;;6.89;81.26
15750;BME280;7976;52.526;13.326;2023-02-02T09:58:27;101079.13;;;6.90;80.69
15750;BME280;7976;52.526;13.326;2023-02-02T10:01:02;101072.19;;;6.92;80.54
15750;BME280;7976;52.526;13.326;2023-02-02T10:03:36;101084.28;;;6.93;80.44
15750;BME280;7976;52.526;13.326;2023-02-02T10:06:23;101087.72;;;6.95;80.22
15750;BME280;7976;52.526;13.326;2023-02-02T10:08:56;101079.88;;;6.97;80.14
15750;BME280;7976;52.526;13.326;2023-02-02T10:11:34;101087.66;;;6.98;79.82
15750;BME280;7976;52.526;13.326;2023-02-02T10:14:11;101082.47;;;6.98;79.64
15750;BME280;7976;52.526;13.326;2023-02-02T10:16:41;101083.31;;;7.00;79.14
15750;BME280;7976;52.526;13.326;2023-02-02T10:19:13;101087.59;;;7.04;79.03
15750;BME280;7976;52.526;13.326;2023-02-02T10:21:49;101084.91;;;7.07;78.75
15750;BME280;7976;52.526;13.326;2023-02-02T10:24:20;101104.84;;;7.08;78.52
15750;BME280;7976;52.526;13.326;2023-02-02T10:26:52;101099.75;;;7.02;78.19
15750;BME280;7976;52.526;13.326;2023-02-02T10:29:32;101105.00;;;6.99;77.76
15750;BME280;7976;52.526;13.326;2023-02-02T10:32:15;101090.28;;;6.97;76.99
15750;BME280;7976;52.526;13.326;2023-02-02T10:35:06;101097.16;;;7.02;76.77
15750;BME280;7976;52.526;13.326;2023-02-02T10:37:44;101108.34;;;7.07;76.23
15750;BME280;7976;52.526;13.326;2023-02-02T10:40:28;101110.81;;;7.13;75.83
15750;BME280;7976;52.526;13.326;2023-02-02T10:43:29;101104.63;;;7.20;75.10
15750;BME280;7976;52.526;13.326;2023-02-02T10:46:19;101111.50;;;7.24;74.09
15750;BME280;7976;52.526;13.326;2023-02-02T10:48:48;101114.94;;;7.26;73.44
15750;BME280;7976;52.526;13.326;2023-02-02T10:51:23;101108.81;;;7.29;72.61
15750;BME280;7976;52.526;13.326;2023-02-02T10:53:55;101118.25;;;7.34;72.32
15750;BME280;7976;52.526;13.326;2023-02-02T10:56:30;101118.97;;;7.42;72.43
15750;BME280;7976;52.526;13.326;2023-02-02T10:59:06;101127.56;;;7.47;72.19
15750;BME280;7976;52.526;13.326;2023-02-02T11:01:36;101127.44;;;7.53;72.22
15750;BME280;7976;52.526;13.326;2023-02-02T11:04:03;101143.06;;;7.55;72.21
15750;BME280;7976;52.526;13.326;2023-02-02T11:06:49;101129.31;;;7.47;72.15
15750;BME280;7976;52.526;13.326;2023-02-02T11:09:20;101141.50;;;7.43;72.04
15750;BME280;7976;52.526;13.326;2023-02-02T11:11:53;101139.75;;;7.45;71.84
15750;BME280;7976;52.526;13.326;2023-02-02T11:14:33;101148.28;;;7.53;71.54
15750;BME280;7976;52.526;13.326;2023-02-02T11:17:04;101144.78;;;7.54;71.13
15750;BME280;7976;52.526;13.326;2023-02-02T11:19:33;101140.47;;;7.55;71.06
15750;BME280;7976;52.526;13.326;2023-02-02T11:22:03;101149.22;;;7.49;70.58
15750;BME280;7976;52.526;13.326;2023-02-02T11:24:38;101159.78;;;7.40;70.73
15750;BME280;7976;52.526;13.326;2023-02-02T11:27:13;101152.03;;;7.37;70.47
15750;BME280;7976;52.526;13.326;2023-02-02T11:29:45;101162.47;;;7.37;70.15
15750;BME280;7976;52.526;13.326;2023-02-02T11:32:26;101155.47;;;7.41;69.90
15750;BME280;7976;52.526;13.326;2023-02-02T11:35:19;101174.50;;;7.44;70.11
15750;BME280;7976;52.526;13.326;2023-02-02T11:38:08;101171.84;;;7.46;70.13
15750;BME280;7976;52.526;13.326;2023-02-02T11:40:38;101180.47;;;7.49;70.26
15750;BME280;7976;52.526;13.326;2023-02-02T11:43:17;101172.56;;;7.54;70.17
15750;BME280;7976;52.526;13.326;2023-02-02T11:45:52;101181.13;;;7.60;70.11
15750;BME280;7976;52.526;13.326;2023-02-02T11:48:29;101188.81;;;7.68;69.85
15750;BME280;7976;52.526;13.326;2023-02-02T11:50:58;101186.16;;;7.71;70.24
15750;BME280;7976;52.526;13.326;2023-02-02T11:53:31;101184.41;;;7.72;70.25
15750;BME280;7976;52.526;13.326;2023-02-02T11:56:04;101184.28;;;7.78;70.13
15750;BME280;7976;52.526;13.326;2023-02-02T11:58:43;101187.84;;;7.72;70.39
15750;BME280;7976;52.526;13.326;2023-02-02T12:01:26;101193.22;;;7.64;70.51
15750;BME280;7976;52.526;13.326;2023-02-02T12:03:54;101202.91;;;7.56;71.27
15750;BME280;7976;52.526;13.326;2023-02-02T12:06:24;101203.06;;;7.47;71.87
15750;BME280;7976;52.526;13.326;2023-02-02T12:08:58;101211.97;;;7.34;72.88
15750;BME280;7976;52.526;13.326;2023-02-02T12:11:43;101227.84;;;7.19;73.97
15750;BME280;7976;52.526;13.326;2023-02-02T12:14:33;101241.91;;;7.06;75.40
15750;BME280;7976;52.526;13.326;2023-02-02T12:17:21;101255.25;;;6.82;77.23
15750;BME280;7976;52.526;13.326;2023-02-02T12:20:20;101253.00;;;6.55;79.86
15750;BME280;7976;52.526;13.326;2023-02-02T12:23:27;101270.66;;;6.30;81.48
15750;BME280;7976;52.526;13.326;2023-02-02T12:26:25;101249.31;;;6.00;82.59
15750;BME280;7976;52.526;13.326;2023-02-02T12:29:15;101253.88;;;5.77;83.41
15750;BME280;7976;52.526;13.326;2023-02-02T12:32:21;101247.00;;;5.68;84.61
15750;BME280;7976;52.526;13.326;2023-02-02T12:35:05;101249.59;;;5.70;85.19
15750;BME280;7976;52.526;13.326;2023-02-02T12:37:53;101250.47;;;5.70;85.44
15750;BME280;7976;52.526;13.326;2023-02-02T12:40:44;101243.50;;;5.74;85.68
15750;BME280;7976;52.526;13.326;2023-02-02T12:43:30;101244.28;;;5.86;85.95
15750;BME280;7976;52.526;13.326;2023-02-02T12:46:34;101251.94;;;6.00;85.54
15750;BME280;7976;52.526;13.326;2023-02-02T12:49:35;101270.91;;;6.05;85.70
15750;BME280;7976;52.526;13.326;2023-02-02T12:52:19;101267.44;;;6.09;85.55
15750;BME280;7976;52.526;13.326;2023-02-02T12:55:09;101263.09;;;6.11;85.30
15750;BME280;7976;52.526;13.326;2023-02-02T12:57:55;101262.19;;;6.12;85.29
15750;BME280;7976;52.526;13.326;2023-02-02T13:00:52;101258.69;;;6.17;85.00
15750;BME280;7976;52.526;13.326;2023-02-02T13:03:37;101256.91;;;6.21;84.51
15750;BME280;7976;52.526;13.326;2023-02-02T13:06:33;101262.94;;;6.21;84.27
15750;BME280;7976;52.526;13.326;2023-02-02T13:09:12;101273.34;;;6.21;83.99
15750;BME280;7976;52.526;13.326;2023-02-02T13:11:44;101272.53;;;6.19;83.15
15750;BME280;7976;52.526;13.326;2023-02-02T13:14:22;101280.31;;;6.19;82.25
15750;BME280;7976;52.526;13.326;2023-02-02T13:16:55;101288.06;;;6.22;81.91
15750;BME280;7976;52.526;13.326;2023-02-02T13:19:32;101297.59;;;6.22;81.50
15750;BME280;7976;52.526;13.326;2023-02-02T13:22:03;101289.75;;;6.25;81.04
15750;BME280;7976;52.526;13.326;2023-02-02T13:24:37;101305.31;;;6.31;80.94
15750;BME280;7976;52.526;13.326;2023-02-02T13:27:13;101308.72;;;6.36;80.85
15750;BME280;7976;52.526;13.326;2023-02-02T13:29:48;101321.63;;;6.42;80.54
15750;BME280;7976;52.526;13.326;2023-02-02T13:32:24;101323.34;;;6.45;80.34
15750;BME280;7976;52.526;13.326;2023-02-02T13:34:57;101325.94;;;6.45;79.90
15750;BME280;7976;52.526;13.326;2023-02-02T13:37:32;101325.03;;;6.47;79.54
15750;BME280;7976;52.526;13.326;2023-02-02T13:40:17;101331.94;;;6.50;79.66
15750;BME280;7976;52.526;13.326;2023-02-02T13:42:53;101347.56;;;6.50;79.19
15750;BME280;7976;52.526;13.326;2023-02-02T13:45:42;101339.72;;;6.51;78.99
15750;BME280;7976;52.526;13.326;2023-02-02T13:48:26;101357.88;;;6.56;79.00